createdAt,value
2019-06-26T00:00:46.291Z,25.36
2019-06-26T00:03:16.704Z,25.28
2019-06-26T00:05:47.088Z,25.23
2019-06-26T00:08:17.556Z,25.21
2019-06-26T00:10:47.930Z,25.21
2019-06-26T00:13:26.319Z,25.19
2019-06-26T00:15:50.999Z,25.19
2019-06-26T00:18:21.398Z,25.24
2019-06-26T00:20:51.827Z,25.23
2019-06-26T00:23:22.227Z,25.18
2019-06-26T00:25:52.624Z,25.17
2019-06-26T00:28:23.051Z,25.21
2019-06-26T00:30:53.455Z,25.24
2019-06-26T00:33:23.858Z,25.26
2019-06-26T00:35:54.277Z,25.27
2019-06-26T00:38:24.703Z,25.31
2019-06-26T00:40:55.063Z,25.30
2019-06-26T00:43:38.485Z,25.37
2019-06-26T00:45:57.499Z,25.39
2019-06-26T00:48:27.873Z,25.30
2019-06-26T00:50:58.281Z,25.23
2019-06-26T00:53:28.659Z,25.14
2019-06-26T00:55:59.039Z,25.07
2019-06-26T00:58:29.702Z,24.98
2019-06-26T01:01:00.122Z,24.91
2019-06-26T01:03:30.465Z,24.88
2019-06-26T01:06:00.986Z,24.85
2019-06-26T01:08:31.379Z,24.83
2019-06-26T01:11:01.750Z,24.81
2019-06-26T01:13:32.189Z,24.77
2019-06-26T01:16:02.629Z,24.71
2019-06-26T01:18:32.968Z,24.69
2019-06-26T01:21:03.328Z,24.64
2019-06-26T01:23:33.711Z,24.61
2019-06-26T01:26:04.058Z,24.62
2019-06-26T01:28:34.506Z,24.56
2019-06-26T01:31:04.882Z,24.53
2019-06-26T01:33:35.246Z,24.47
2019-06-26T01:36:05.701Z,24.44
2019-06-26T01:38:36.122Z,24.40
2019-06-26T01:41:06.515Z,24.42
2019-06-26T01:43:36.888Z,24.39
2019-06-26T01:46:07.335Z,24.33
2019-06-26T01:48:37.681Z,24.42
2019-06-26T01:51:08.071Z,24.42
2019-06-26T01:53:38.718Z,24.44
2019-06-26T01:56:09.569Z,24.47
2019-06-26T01:58:39.954Z,24.47
2019-06-26T02:01:10.370Z,24.45
2019-06-26T02:03:40.810Z,24.39
2019-06-26T02:06:11.165Z,24.35
2019-06-26T02:08:41.595Z,24.33
2019-06-26T02:11:11.911Z,24.38
2019-06-26T02:13:42.291Z,24.37
2019-06-26T02:16:12.752Z,24.37
2019-06-26T02:18:56.371Z,24.41
2019-06-26T02:21:26.896Z,24.45
2019-06-26T02:23:57.291Z,24.47
2019-06-26T02:26:27.696Z,24.45
2019-06-26T02:28:58.566Z,24.40
2019-06-26T02:31:29.297Z,24.33
2019-06-26T02:33:59.685Z,24.25
2019-06-26T02:36:30.069Z,24.18
2019-06-26T02:39:00.466Z,24.14
2019-06-26T02:41:30.874Z,24.14
2019-06-26T02:44:01.378Z,24.13
2019-06-26T02:46:31.736Z,24.06
2019-06-26T02:49:02.176Z,24.09
2019-06-26T02:51:32.575Z,24.12
2019-06-26T02:54:03.014Z,24.14
2019-06-26T02:56:33.401Z,24.17
2019-06-26T02:59:03.832Z,24.17
2019-06-26T03:01:34.224Z,24.16
2019-06-26T03:04:04.594Z,24.17
2019-06-26T03:06:35.039Z,24.20
2019-06-26T03:09:07.299Z,24.22
2019-06-26T03:11:37.787Z,24.23
2019-06-26T03:14:08.168Z,24.28
2019-06-26T03:16:38.598Z,24.28
2019-06-26T03:19:09.066Z,24.30
2019-06-26T03:21:39.750Z,24.34
2019-06-26T03:24:10.112Z,24.43
2019-06-26T03:26:40.512Z,24.54
2019-06-26T03:29:10.864Z,24.64
2019-06-26T03:31:41.232Z,24.72
2019-06-26T03:34:11.605Z,24.80
2019-06-26T03:36:42.051Z,24.88
2019-06-26T03:39:12.491Z,24.96
2019-06-26T03:41:42.909Z,25.01
2019-06-26T03:44:13.343Z,25.09
2019-06-26T03:46:43.719Z,25.16
2019-06-26T03:49:14.144Z,25.27
2019-06-26T03:51:44.501Z,25.31
2019-06-26T03:54:14.905Z,25.43
2019-06-26T03:56:45.405Z,25.49
2019-06-26T03:59:15.951Z,25.60
2019-06-26T04:01:46.359Z,25.74
2019-06-26T04:04:16.782Z,25.86
2019-06-26T04:06:47.287Z,25.94
2019-06-26T04:09:17.672Z,26.11
2019-06-26T04:11:48.525Z,26.24
2019-06-26T04:14:19.285Z,26.37
2019-06-26T04:16:49.682Z,26.51
2019-06-26T04:19:20.099Z,26.64
2019-06-26T04:21:50.465Z,26.75
2019-06-26T04:24:20.826Z,26.81
2019-06-26T04:26:51.192Z,26.85
2019-06-26T04:29:21.615Z,26.96
2019-06-26T04:31:51.972Z,27.07
2019-06-26T04:34:22.700Z,27.22
2019-06-26T04:36:53.084Z,27.34
2019-06-26T04:39:23.476Z,27.49
2019-06-26T04:41:53.884Z,27.66
2019-06-26T04:44:24.310Z,27.77
2019-06-26T04:46:54.694Z,27.87
2019-06-26T04:49:25.084Z,27.95
2019-06-26T04:51:55.432Z,28.05
2019-06-26T04:54:25.858Z,28.15
2019-06-26T04:56:56.243Z,28.29
2019-06-26T04:59:26.601Z,28.45
2019-06-26T05:01:56.983Z,28.59
2019-06-26T05:04:27.762Z,28.82
2019-06-26T05:07:00.433Z,29.03
2019-06-26T05:09:30.782Z,29.34
2019-06-26T05:12:01.162Z,29.71
2019-06-26T05:14:34.582Z,30.11
2019-06-26T05:17:04.972Z,30.48
2019-06-26T05:19:35.353Z,30.83
2019-06-26T05:22:05.791Z,31.11
2019-06-26T05:24:36.151Z,31.40
2019-06-26T05:27:06.536Z,31.79
2019-06-26T05:29:36.905Z,32.15
2019-06-26T05:32:07.285Z,32.60
2019-06-26T05:34:37.708Z,32.90
2019-06-26T05:37:08.832Z,33.10
2019-06-26T05:39:39.500Z,33.42
2019-06-26T05:42:10.068Z,33.74
2019-06-26T05:44:40.522Z,34.04
2019-06-26T05:47:10.902Z,34.29
2019-06-26T05:49:41.304Z,34.73
2019-06-26T05:52:11.706Z,35.32
2019-06-26T05:54:42.062Z,35.90
2019-06-26T05:57:12.506Z,36.38
2019-06-26T05:59:43.068Z,36.84
2019-06-26T06:02:14.638Z,37.08
2019-06-26T06:04:45.070Z,37.49
2019-06-26T06:07:15.574Z,37.81
2019-06-26T06:09:45.970Z,38.20
2019-06-26T06:12:16.425Z,38.68
2019-06-26T06:14:46.867Z,39.08
2019-06-26T06:17:16.376Z,39.24
2019-06-26T06:19:48.681Z,39.27
2019-06-26T06:22:19.410Z,39.22
2019-06-26T06:24:49.836Z,39.40
2019-06-26T06:27:19.408Z,39.85
2019-06-26T06:29:49.728Z,40.43
2019-06-26T06:32:19.168Z,40.82
2019-06-26T06:34:49.844Z,41.05
2019-06-26T06:37:20.298Z,41.27
2019-06-26T06:39:50.726Z,41.36
2019-06-26T06:42:21.155Z,41.71
2019-06-26T06:44:51.634Z,42.03
2019-06-26T06:47:22.117Z,42.59
2019-06-26T06:49:52.596Z,43.39
2019-06-26T06:52:23.203Z,43.99
2019-06-26T06:54:53.693Z,43.64
2019-06-26T06:57:24.140Z,43.65
2019-06-26T06:59:54.646Z,43.54
2019-06-26T07:02:25.296Z,43.89
2019-06-26T07:04:55.827Z,44.36
2019-06-26T07:07:27.383Z,44.93
2019-06-26T07:09:57.842Z,45.09
2019-06-26T07:12:28.956Z,45.59
2019-06-26T07:14:59.842Z,45.87
2019-06-26T07:17:30.393Z,46.20
2019-06-26T07:20:00.875Z,46.12
2019-06-26T07:22:31.401Z,45.59
2019-06-26T07:25:01.891Z,45.85
2019-06-26T07:27:32.362Z,46.29
2019-06-26T07:30:02.864Z,46.94
2019-06-26T07:32:33.364Z,47.34
2019-06-26T07:35:04.271Z,47.61
2019-06-26T07:37:34.724Z,47.68
2019-06-26T07:40:05.900Z,47.80
2019-06-26T07:42:36.419Z,47.85
2019-06-26T07:45:06.989Z,47.62
2019-06-26T07:51:52.145Z,48.28
2019-06-26T07:54:23.565Z,49.31
2019-06-26T07:56:53.932Z,49.92
2019-06-26T07:59:24.339Z,49.01
2019-06-26T08:01:54.694Z,48.19
2019-06-26T08:04:25.206Z,48.06
2019-06-26T08:06:55.521Z,48.21
2019-06-26T08:09:25.932Z,48.55
2019-06-26T08:11:57.315Z,48.36
2019-06-26T08:14:27.684Z,49.31
2019-06-26T08:16:58.704Z,49.51
2019-06-26T08:19:29.503Z,49.73
2019-06-26T08:22:00.976Z,49.73
2019-06-26T08:24:31.359Z,49.85
2019-06-26T08:27:01.805Z,49.52
2019-06-26T08:29:32.179Z,50.47
2019-06-26T08:32:02.560Z,50.21
2019-06-26T08:34:33.017Z,50.95
2019-06-26T08:37:03.500Z,51.48
2019-06-26T08:39:33.841Z,50.63
2019-06-26T08:42:04.392Z,51.04
2019-06-26T08:44:34.803Z,51.80
2019-06-26T08:47:05.212Z,51.91
2019-06-26T08:49:35.562Z,52.36
2019-06-26T08:52:07.034Z,52.73
2019-06-26T08:54:37.427Z,52.44
2019-06-26T08:57:07.801Z,51.87
2019-06-26T08:59:38.813Z,51.21
2019-06-26T09:02:09.537Z,51.82
2019-06-26T09:04:39.938Z,51.82
2019-06-26T09:07:14.249Z,52.26
2019-06-26T09:09:55.912Z,53.19
2019-06-26T09:12:30.457Z,52.82
2019-06-26T09:15:08.720Z,51.95
2019-06-26T09:17:39.501Z,50.47
2019-06-26T09:20:10.930Z,50.86
2019-06-26T09:22:41.351Z,51.36
2019-06-26T09:25:21.826Z,52.74
2019-06-26T09:27:43.923Z,53.04
2019-06-26T09:30:14.495Z,53.65
2019-06-26T09:32:44.890Z,53.85
2019-06-26T09:35:15.377Z,54.54
2019-06-26T09:37:45.715Z,54.33
2019-06-26T09:40:16.532Z,53.85
2019-06-26T09:42:46.957Z,54.25
2019-06-26T09:45:17.470Z,54.87
2019-06-26T09:47:48.574Z,56.20
2019-06-26T09:50:20.056Z,56.55
2019-06-26T09:52:50.454Z,56.76
2019-06-26T09:55:20.974Z,55.98
2019-06-26T09:57:51.352Z,55.88
2019-06-26T10:00:22.645Z,55.95
2019-06-26T10:02:53.103Z,55.94
2019-06-26T10:05:23.545Z,56.88
2019-06-26T10:07:53.974Z,57.17
2019-06-26T10:10:24.397Z,57.08
2019-06-26T10:12:54.799Z,57.29
2019-06-26T10:15:26.056Z,57.84
2019-06-26T10:17:57.178Z,58.24
2019-06-26T10:20:27.625Z,58.09
2019-06-26T10:22:57.993Z,57.95
2019-06-26T10:25:28.777Z,57.12
2019-06-26T10:27:59.488Z,56.98
2019-06-26T10:30:29.877Z,57.61
2019-06-26T10:33:00.270Z,58.56
2019-06-26T10:35:30.652Z,59.27
2019-06-26T10:38:01.086Z,58.54
2019-06-26T10:40:31.441Z,57.78
2019-06-26T10:43:01.871Z,57.58
2019-06-26T10:45:35.938Z,57.80
2019-06-26T10:48:04.397Z,58.29
2019-06-26T10:50:47.484Z,57.91
2019-06-26T10:53:06.844Z,57.45
2019-06-26T10:55:37.301Z,58.17
2019-06-26T10:58:07.731Z,57.32
2019-06-26T11:00:38.867Z,57.49
2019-06-26T11:03:09.554Z,57.11
2019-06-26T11:05:40.059Z,58.51
2019-06-26T11:08:10.571Z,57.72
2019-06-26T11:10:40.941Z,57.26
2019-06-26T11:13:11.500Z,56.88
2019-06-26T11:15:41.928Z,57.15
2019-06-26T11:18:12.395Z,56.48
2019-06-26T11:20:42.837Z,55.71
2019-06-26T11:23:13.325Z,55.11
2019-06-26T11:25:44.621Z,54.49
2019-06-26T11:28:15.322Z,54.52
2019-06-26T11:30:45.696Z,52.99
2019-06-26T11:33:16.049Z,50.07
2019-06-26T11:35:46.422Z,48.04
2019-06-26T11:38:16.791Z,46.48
2019-06-26T11:40:47.164Z,44.71
2019-06-26T11:43:17.465Z,43.25
2019-06-26T11:45:47.978Z,41.97
2019-06-26T11:48:18.422Z,41.25
2019-06-26T11:50:48.774Z,40.35
2019-06-26T11:53:18.223Z,40.02
2019-06-26T11:55:48.536Z,39.38
2019-06-26T11:58:20.137Z,39.21
2019-06-26T12:00:50.496Z,38.81
2019-06-26T12:03:20.993Z,38.64
2019-06-26T12:05:51.416Z,38.42
2019-06-26T12:08:21.803Z,38.03
2019-06-26T12:10:52.167Z,37.74
2019-06-26T12:13:22.609Z,37.57
2019-06-26T12:15:53.279Z,37.47
2019-06-26T12:18:22.726Z,37.24
2019-06-26T12:20:53.047Z,36.98
2019-06-26T12:23:23.715Z,37.01
2019-06-26T12:25:54.053Z,36.97
2019-06-26T12:28:24.506Z,36.95
2019-06-26T12:30:54.867Z,36.68
2019-06-26T12:33:25.281Z,36.66
2019-06-26T12:35:55.697Z,36.63
2019-06-26T12:38:26.062Z,36.50
2019-06-26T12:40:56.454Z,36.50
2019-06-26T12:43:26.925Z,36.56
2019-06-26T12:45:57.323Z,36.47
2019-06-26T12:48:27.717Z,36.45
2019-06-26T12:50:58.081Z,36.33
2019-06-26T12:53:28.449Z,36.30
2019-06-26T12:55:58.800Z,36.46
2019-06-26T12:58:29.284Z,36.34
2019-06-26T13:00:59.610Z,36.33
2019-06-26T13:03:30.528Z,36.40
2019-06-26T13:06:00.939Z,36.25
2019-06-26T13:08:31.317Z,36.26
2019-06-26T13:11:01.693Z,36.28
2019-06-26T13:13:32.055Z,36.12
2019-06-26T13:16:02.457Z,36.08
2019-06-26T13:18:32.845Z,36.17
2019-06-26T13:21:05.156Z,36.16
2019-06-26T13:23:35.410Z,36.15
2019-06-26T13:26:05.775Z,36.25
2019-06-26T13:28:36.240Z,36.18
2019-06-26T13:31:06.587Z,36.06
2019-06-26T13:33:36.973Z,36.07
2019-06-26T13:36:07.352Z,36.04
2019-06-26T13:38:37.699Z,36.11
2019-06-26T13:41:08.075Z,36.08
2019-06-26T13:43:38.476Z,36.16
2019-06-26T13:46:08.833Z,36.29
2019-06-26T13:48:40.240Z,36.11
2019-06-26T13:51:10.705Z,36.00
2019-06-26T13:53:41.140Z,36.00
2019-06-26T13:56:11.792Z,35.81
2019-06-26T13:58:41.371Z,35.74
2019-06-26T14:01:11.753Z,35.70
2019-06-26T14:03:42.080Z,35.86
2019-06-26T14:06:12.462Z,35.75
2019-06-26T14:08:42.836Z,35.72
2019-06-26T14:11:13.255Z,35.74
2019-06-26T14:13:43.637Z,35.70
2019-06-26T14:16:14.015Z,35.57
2019-06-26T14:18:44.420Z,35.68
2019-06-26T14:21:25.042Z,35.61
2019-06-26T14:23:46.950Z,35.67
2019-06-26T14:26:17.336Z,35.50
2019-06-26T14:28:47.841Z,35.49
2019-06-26T14:31:18.310Z,35.63
2019-06-26T14:33:48.819Z,35.64
2019-06-26T14:36:22.369Z,35.54
2019-06-26T14:38:51.280Z,35.64
2019-06-26T14:41:21.692Z,35.58
2019-06-26T14:43:52.101Z,35.53
2019-06-26T14:46:22.513Z,35.47
2019-06-26T14:48:52.951Z,35.40
2019-06-26T14:51:23.329Z,35.38
2019-06-26T14:53:53.829Z,35.48
2019-06-26T14:56:24.190Z,35.49
2019-06-26T14:58:54.677Z,35.48
2019-06-26T15:01:25.027Z,35.41
2019-06-26T15:03:55.472Z,35.26
2019-06-26T15:06:25.949Z,35.30
2019-06-26T15:08:56.356Z,35.37
2019-06-26T15:11:26.757Z,35.32
2019-06-26T15:13:57.209Z,35.27
2019-06-26T15:16:30.367Z,35.20
2019-06-26T15:18:59.745Z,35.20
2019-06-26T15:21:30.221Z,35.17
2019-06-26T15:24:00.667Z,35.12
2019-06-26T15:26:31.148Z,35.04
2019-06-26T15:29:01.622Z,35.01
2019-06-26T15:31:32.106Z,35.04
2019-06-26T15:34:02.755Z,34.91
2019-06-26T15:36:33.183Z,34.80
2019-06-26T15:39:06.457Z,34.72
2019-06-26T15:41:36.857Z,34.60
2019-06-26T15:44:07.313Z,34.45
2019-06-26T15:46:37.656Z,34.24
2019-06-26T15:49:08.490Z,34.23
2019-06-26T15:51:39.572Z,34.38
2019-06-26T15:54:10.015Z,34.44
2019-06-26T15:56:40.407Z,34.27
2019-06-26T15:59:10.750Z,34.39
2019-06-26T16:01:45.705Z,34.29
2019-06-26T16:04:16.170Z,34.12
2019-06-26T16:06:46.534Z,33.87
2019-06-26T16:09:16.902Z,33.92
2019-06-26T16:11:47.421Z,33.93
2019-06-26T16:14:17.859Z,33.86
2019-06-26T16:16:49.425Z,33.76
2019-06-26T16:19:20.650Z,33.78
2019-06-26T16:21:50.996Z,33.64
2019-06-26T16:24:22.000Z,33.80
2019-06-26T16:26:52.131Z,33.91
2019-06-26T16:29:22.391Z,33.75
2019-06-26T16:31:52.916Z,33.76
2019-06-26T16:34:23.338Z,33.65
2019-06-26T16:36:53.776Z,33.58
2019-06-26T16:39:24.129Z,33.53
2019-06-26T16:41:54.504Z,33.49
2019-06-26T16:44:24.869Z,33.51
2019-06-26T16:46:59.004Z,33.38
2019-06-26T16:49:27.341Z,33.30
2019-06-26T16:51:57.837Z,33.31
2019-06-26T16:54:28.230Z,33.17
2019-06-26T16:56:58.655Z,33.18
2019-06-26T16:59:29.139Z,33.34
2019-06-26T17:01:59.573Z,33.32
2019-06-26T17:04:29.939Z,33.30
2019-06-26T17:07:00.279Z,33.28
2019-06-26T17:09:30.697Z,33.22
2019-06-26T17:12:01.088Z,33.14
2019-06-26T17:14:31.458Z,33.12
2019-06-26T17:17:02.105Z,33.02
2019-06-26T17:19:33.974Z,33.11
2019-06-26T17:22:04.585Z,33.09
2019-06-26T17:24:35.013Z,32.96
2019-06-26T17:27:05.426Z,32.98
2019-06-26T17:29:35.946Z,33.00
2019-06-26T17:32:06.355Z,32.99
2019-06-26T17:34:36.835Z,32.97
2019-06-26T17:37:07.289Z,32.92
2019-06-26T17:39:37.660Z,32.90
2019-06-26T17:42:08.051Z,32.87
2019-06-26T17:44:38.503Z,32.84
2019-06-26T17:47:08.858Z,32.80
2019-06-26T17:49:40.900Z,32.73
2019-06-26T17:52:11.412Z,32.72
2019-06-26T17:54:41.810Z,32.69
2019-06-26T17:57:12.247Z,32.69
2019-06-26T17:59:42.716Z,32.68
2019-06-26T18:02:13.072Z,32.59
2019-06-26T18:04:43.500Z,32.53
2019-06-26T18:07:13.877Z,32.47
2019-06-26T18:09:44.279Z,32.43
2019-06-26T18:12:14.672Z,32.39
2019-06-26T18:14:45.051Z,32.39
2019-06-26T18:17:21.895Z,32.32
2019-06-26T18:19:47.531Z,32.30
2019-06-26T18:22:17.916Z,32.16
2019-06-26T18:24:48.391Z,32.16
2019-06-26T18:27:18.841Z,32.15
2019-06-26T18:29:49.210Z,32.06
2019-06-26T18:32:19.708Z,32.05
2019-06-26T18:34:50.087Z,32.04
2019-06-26T18:37:20.541Z,32.02
2019-06-26T18:39:50.894Z,31.91
2019-06-26T18:42:21.327Z,31.86
2019-06-26T18:44:51.802Z,31.80
2019-06-26T18:47:22.183Z,31.81
2019-06-26T18:49:52.560Z,31.76
2019-06-26T18:52:22.889Z,31.75
2019-06-26T18:54:53.329Z,31.71
2019-06-26T18:57:23.736Z,31.72
2019-06-26T18:59:54.160Z,31.67
2019-06-26T19:02:24.586Z,31.59
2019-06-26T19:04:55.004Z,31.55
2019-06-26T19:07:25.439Z,31.52
2019-06-26T19:09:55.820Z,31.47
2019-06-26T19:12:26.180Z,31.42
2019-06-26T19:14:57.646Z,31.39
2019-06-26T19:17:28.501Z,31.37
2019-06-26T19:19:58.960Z,31.36
2019-06-26T19:22:30.787Z,31.34
2019-06-26T19:25:01.298Z,31.24
2019-06-26T19:27:31.853Z,31.24
2019-06-26T19:30:02.324Z,31.16
2019-06-26T19:32:32.741Z,31.08
2019-06-26T19:35:07.893Z,31.10
2019-06-26T19:37:35.295Z,31.08
2019-06-26T19:40:08.439Z,31.10
2019-06-26T19:42:38.255Z,31.05
2019-06-26T19:45:09.323Z,31.06
2019-06-26T19:47:38.773Z,31.00
2019-06-26T19:50:09.084Z,30.93
2019-06-26T19:52:39.701Z,30.87
2019-06-26T19:55:11.399Z,30.89
2019-06-26T19:57:41.833Z,30.82
2019-06-26T20:00:12.651Z,30.80
2019-06-26T20:02:43.059Z,30.77
2019-06-26T20:05:15.022Z,30.77
2019-06-26T20:07:45.423Z,30.83
2019-06-26T20:10:16.055Z,30.77
2019-06-26T20:12:46.469Z,30.73
2019-06-26T20:15:16.982Z,30.69
2019-06-26T20:17:47.538Z,30.61
2019-06-26T20:20:18.016Z,30.62
2019-06-26T20:22:48.819Z,30.62
2019-06-26T20:25:19.721Z,30.57
2019-06-26T20:27:56.655Z,30.55
2019-06-26T20:30:25.668Z,30.55
2019-06-26T20:32:56.148Z,30.53
2019-06-26T20:35:26.700Z,30.51
2019-06-26T20:37:57.369Z,30.47
2019-06-26T20:40:27.822Z,30.42
2019-06-26T20:42:58.735Z,30.44
2019-06-26T20:45:29.565Z,30.40
2019-06-26T20:48:00.025Z,30.41
2019-06-26T20:50:30.567Z,30.37
2019-06-26T20:53:00.972Z,30.40
2019-06-26T20:55:31.468Z,30.35
2019-06-26T20:58:02.023Z,30.35
2019-06-26T21:00:32.528Z,30.36
2019-06-26T21:03:03.060Z,30.31
2019-06-26T21:05:33.606Z,30.30
2019-06-26T21:08:04.180Z,30.27
2019-06-26T21:10:34.642Z,30.23
2019-06-26T21:13:05.298Z,30.20
2019-06-26T21:15:35.796Z,30.15
2019-06-26T21:18:06.243Z,30.14
2019-06-26T21:20:36.629Z,30.09
2019-06-26T21:23:17.966Z,30.09
2019-06-26T21:25:40.437Z,30.10
2019-06-26T21:28:10.888Z,30.07
2019-06-26T21:30:41.323Z,29.99
2019-06-26T21:33:11.734Z,29.98
2019-06-26T21:35:44.327Z,29.97
2019-06-26T21:38:14.726Z,30.00
2019-06-26T21:40:45.184Z,30.01
2019-06-26T21:43:15.544Z,29.93
2019-06-26T21:46:22.659Z,29.90
2019-06-26T21:48:59.411Z,29.90
2019-06-26T21:51:30.670Z,29.82
2019-06-26T21:54:02.259Z,29.76
2019-06-26T21:56:33.206Z,29.78
2019-06-26T21:59:03.384Z,29.77
2019-06-26T22:01:33.756Z,29.73
2019-06-26T22:04:04.694Z,29.72
2019-06-26T22:06:35.537Z,29.73
2019-06-26T22:09:05.989Z,29.71
2019-06-26T22:12:12.574Z,29.64
2019-06-26T22:15:18.922Z,29.63
2019-06-26T22:18:25.022Z,29.60
2019-06-26T22:21:30.961Z,29.63
2019-06-26T22:24:37.020Z,29.61
2019-06-26T22:27:09.438Z,29.55
2019-06-26T22:29:39.871Z,29.51
2019-06-26T22:32:10.265Z,29.52
2019-06-26T22:34:40.752Z,29.53
2019-06-26T22:37:12.228Z,29.48
2019-06-26T22:39:42.642Z,29.51
2019-06-26T22:42:12.998Z,29.52
2019-06-26T22:44:43.756Z,29.51
2019-06-26T22:47:14.259Z,29.52
2019-06-26T22:49:44.632Z,29.50
2019-06-26T22:52:15.003Z,29.46
2019-06-26T22:54:45.966Z,29.42
2019-06-26T22:57:16.336Z,29.39
2019-06-26T22:59:47.680Z,29.43
2019-06-26T23:02:18.623Z,29.42
2019-06-26T23:04:49.220Z,29.38
2019-06-26T23:07:19.624Z,29.32
2019-06-26T23:09:50.000Z,29.32
2019-06-26T23:12:20.586Z,29.30
2019-06-26T23:14:51.041Z,29.27
2019-06-26T23:17:21.411Z,29.30
2019-06-26T23:19:51.812Z,29.31
2019-06-26T23:22:22.266Z,29.24
2019-06-26T23:24:52.672Z,29.24
2019-06-26T23:27:24.079Z,29.20
2019-06-26T23:29:54.486Z,29.18
2019-06-26T23:32:25.070Z,29.15
2019-06-26T23:34:55.495Z,29.14
2019-06-26T23:37:25.900Z,29.16
2019-06-26T23:39:56.280Z,28.76
2019-06-26T23:42:26.643Z,28.76
2019-06-26T23:44:57.171Z,28.72
2019-06-26T23:47:27.621Z,28.66
2019-06-26T23:49:58.437Z,28.64
2019-06-26T23:52:29.180Z,28.57
2019-06-26T23:54:59.600Z,28.43
2019-06-26T23:57:29.970Z,28.32
